Time;durP1;ratioP1;P1;durP2;ratioP2;P2;SDS_P1;SDS_P2;PMS_P1;PMS_P2;Temp;Humidity;BMP_temperature;BMP_pressure;BME280_temperature;BME280_humidity;BME280_pressure;Samples;Min_cycle;Max_cycle;Signal;HPM_P1;HPM_P2
2020/12/23 00:01:59;;;;;;;6.33;4.00;;;;;;;9.61;79.43;98891.92;125284;1097;65082;-90
2020/12/23 00:04:25;;;;;;;5.87;3.20;;;;;;;9.62;79.64;98908.77;125592;1095;65185;-92
2020/12/23 00:06:51;;;;;;;7.55;3.70;;;;;;;9.60;79.34;98902.67;125251;1097;65227;-92
2020/12/23 00:09:18;;;;;;;12.35;4.55;;;;;;;9.60;79.24;98905.33;125543;1095;65156;-91
2020/12/23 00:11:45;;;;;;;7.50;3.90;;;;;;;9.62;79.77;98898.95;125286;1097;65223;-92
2020/12/23 00:14:11;;;;;;;5.00;3.90;;;;;;;9.61;79.54;98897.25;125543;1095;65523;-90
2020/12/23 00:16:41;;;;;;;6.70;3.73;;;;;;;9.57;79.40;98903.75;125298;1097;65204;-92
2020/12/23 00:19:07;;;;;;;4.40;3.33;;;;;;;9.52;79.29;98903.21;125646;1097;65129;-89
2020/12/23 00:21:34;;;;;;;6.43;3.87;;;;;;;9.47;79.13;98898.19;125965;1095;65223;-86
2020/12/23 00:24:00;;;;;;;4.17;3.03;;;;;;;9.44;79.71;98901.09;126019;1095;65179;-88
2020/12/23 00:26:26;;;;;;;4.00;2.70;;;;;;;9.39;79.34;98913.03;125633;1097;65291;-90
2020/12/23 00:28:53;;;;;;;4.20;2.80;;;;;;;9.37;79.15;98906.96;125952;1096;65176;-91
2020/12/23 00:31:20;;;;;;;4.40;3.40;;;;;;;9.38;79.71;98901.52;125676;1095;65265;-89
2020/12/23 00:33:46;;;;;;;4.60;3.13;;;;;;;9.38;79.82;98904.18;126232;1095;65528;-90
2020/12/23 00:36:13;;;;;;;4.13;3.23;;;;;;;9.40;79.60;98910.25;125580;1095;65172;-94
2020/12/23 00:38:41;;;;;;;6.33;3.53;;;;;;;9.43;79.68;98901.20;125606;1095;65274;-92
2020/12/23 00:41:11;;;;;;;5.17;3.33;;;;;;;9.46;79.92;98898.31;125512;1095;65188;-89
2020/12/23 00:43:37;;;;;;;13.57;7.03;;;;;;;9.48;79.73;98894.59;125233;1096;65191;-91
2020/12/23 00:46:09;;;;;;;11.03;5.90;;;;;;;9.52;79.42;98897.03;125254;1095;65028;-90
2020/12/23 00:48:35;;;;;;;10.10;5.60;;;;;;;9.52;80.03;98894.36;125606;1097;65159;-89
2020/12/23 00:51:10;;;;;;;8.47;5.40;;;;;;;9.48;80.00;98891.08;125295;1093;65172;-88
2020/12/23 00:53:38;;;;;;;;;;;;;;;9.46;80.03;98895.64;125787;1096;65182;-91
2020/12/23 00:56:04;;;;;;;9.80;5.90;;;;;;;9.44;79.61;98900.23;125659;1093;65156;-88
2020/12/23 00:58:31;;;;;;;10.37;7.40;;;;;;;9.46;80.17;98891.16;125936;1095;65157;-88
2020/12/23 01:00:59;;;;;;;11.55;7.80;;;;;;;9.46;79.44;98899.16;125247;1097;65188;-88
2020/12/23 01:03:25;;;;;;;10.75;8.25;;;;;;;9.48;79.52;98899.92;125652;1095;65329;-87
2020/12/23 01:05:52;;;;;;;14.97;9.77;;;;;;;9.55;79.52;98904.83;125570;1097;65600;-88
2020/12/23 01:08:19;;;;;;;15.40;11.23;;;;;;;9.51;79.48;98895.33;125289;1096;65159;-89
2020/12/23 01:10:47;;;;;;;14.30;11.10;;;;;;;9.44;79.46;98911.75;126237;1095;65096;-90
2020/12/23 01:13:14;;;;;;;14.50;12.03;;;;;;;9.37;79.86;98905.14;125417;1095;65130;-91
2020/12/23 01:15:42;;;;;;;16.53;12.40;;;;;;;9.33;79.79;98905.45;125248;1096;65192;-93
2020/12/23 01:18:09;;;;;;;12.40;8.93;;;;;;;9.26;79.64;98897.03;125744;1090;65120;-88
2020/12/23 01:20:35;;;;;;;11.60;8.13;;;;;;;9.16;79.38;98906.61;125566;1095;65226;-88
2020/12/23 01:23:02;;;;;;;16.90;9.47;;;;;;;9.07;79.72;98917.91;125334;1096;65128;-90
2020/12/23 01:25:29;;;;;;;16.63;9.17;;;;;;;9.05;80.00;98926.01;125613;1096;65105;-90
2020/12/23 01:27:56;;;;;;;13.57;8.20;;;;;;;9.05;79.73;98920.69;125402;1097;65179;-88
2020/12/23 01:30:22;;;;;;;14.83;8.33;;;;;;;9.09;80.23;98918.64;125934;1095;65235;-91
2020/12/23 01:32:49;;;;;;;18.60;9.60;;;;;;;9.14;80.42;98921.85;125351;1095;65127;-91
2020/12/23 01:35:16;;;;;;;15.53;8.07;;;;;;;9.20;79.80;98913.44;125657;1096;65146;-90
2020/12/23 01:37:42;;;;;;;17.17;9.13;;;;;;;9.23;80.13;98907.92;125567;1096;65111;-94
2020/12/23 01:40:08;;;;;;;16.10;8.87;;;;;;;9.28;79.98;98904.91;125512;1097;65197;-88
2020/12/23 01:42:35;;;;;;;12.50;8.60;;;;;;;9.28;80.35;98919.09;125425;1097;65182;-88
2020/12/23 01:45:03;;;;;;;12.90;8.67;;;;;;;9.29;80.34;98914.61;125358;1096;65165;-88
2020/12/23 01:47:31;;;;;;;15.20;9.20;;;;;;;9.25;80.09;98919.31;125588;1096;65510;-92
2020/12/23 01:49:57;;;;;;;11.67;7.03;;;;;;;9.19;80.17;98923.25;125594;1095;65079;-88
2020/12/23 01:52:24;;;;;;;9.50;5.80;;;;;;;9.16;80.24;98914.59;125878;1095;65296;-88
2020/12/23 01:54:53;;;;;;;6.37;4.63;;;;;;;9.17;79.89;98919.00;125823;1095;65443;-89
2020/12/23 01:57:19;;;;;;;6.43;4.37;;;;;;;9.19;80.29;98909.92;125805;1095;65243;-92
2020/12/23 01:59:47;;;;;;;6.73;4.63;;;;;;;9.24;80.15;98914.95;125783;1096;65203;-90
2020/12/23 02:02:35;;;;;;;9.30;4.90;;;;;;;9.29;79.99;98919.94;125232;1095;65143;-90
2020/12/23 02:05:05;;;;;;;6.05;4.25;;;;;;;9.30;79.85;98914.53;125531;1095;65294;-88
2020/12/23 02:07:34;;;;;;;6.03;4.57;;;;;;;9.32;80.27;98917.93;125246;1096;65175;-93
2020/12/23 02:10:06;;;;;;;7.37;4.90;;;;;;;9.36;80.53;98913.25;125229;1095;65157;-92
2020/12/23 02:12:34;;;;;;;9.60;4.53;;;;;;;9.38;79.97;98909.52;125267;1096;65173;-95
2020/12/23 02:15:13;;;;;;;7.57;3.50;;;;;;;9.37;80.51;98915.80;125377;1096;65175;-90
2020/12/23 02:17:42;;;;;;;5.95;4.40;;;;;;;9.36;80.26;98908.77;125511;1095;65588;-90
2020/12/23 02:20:14;;;;;;;9.07;4.97;;;;;;;9.34;80.41;98921.33;125492;1095;65300;-94
2020/12/23 02:22:42;;;;;;;6.67;4.80;;;;;;;9.28;79.96;98927.08;125358;1095;65147;-90
2020/12/23 02:25:09;;;;;;;8.77;5.60;;;;;;;9.25;79.83;98927.31;125549;1095;65127;-90
2020/12/23 02:27:36;;;;;;;10.07;5.03;;;;;;;9.25;80.26;98916.66;125240;1096;65223;-89
2020/12/23 02:30:06;;;;;;;8.23;5.83;;;;;;;9.28;80.31;98907.58;125668;1097;65185;-89
2020/12/23 02:32:33;;;;;;;9.80;6.07;;;;;;;9.33;80.69;98902.80;125657;1095;65239;-94
2020/12/23 02:34:59;;;;;;;12.17;7.00;;;;;;;9.31;80.71;98892.25;125760;1095;65179;-90
2020/12/23 02:37:26;;;;;;;8.13;5.10;;;;;;;9.32;80.31;98893.09;125314;1096;65198;-90
2020/12/23 02:39:55;;;;;;;11.00;5.70;;;;;;;9.33;80.04;98892.98;125344;1096;65121;-94
2020/12/23 02:42:23;;;;;;;8.40;5.45;;;;;;;9.34;80.24;98891.16;125697;1097;65147;-89
2020/12/23 02:44:53;;;;;;;8.57;5.67;;;;;;;9.35;80.46;98906.19;125377;1095;65133;-92
2020/12/23 02:47:20;;;;;;;9.67;5.67;;;;;;;9.34;80.20;98899.16;125600;1096;65201;-90
2020/12/23 02:49:47;;;;;;;9.17;6.73;;;;;;;9.30;80.08;98898.54;125734;1097;65223;-88
2020/12/23 02:52:13;;;;;;;10.73;5.73;;;;;;;9.27;80.48;98896.07;125515;1093;65154;-92
2020/12/23 02:54:40;;;;;;;9.43;6.27;;;;;;;9.26;80.51;98896.19;125791;1095;65394;-90
2020/12/23 02:57:08;;;;;;;7.77;5.53;;;;;;;9.24;80.15;98890.97;125636;1095;65214;-92
2020/12/23 02:59:35;;;;;;;12.23;7.90;;;;;;;9.24;80.89;98892.78;125688;1095;65086;-92
2020/12/23 03:02:01;;;;;;;13.30;8.93;;;;;;;9.22;80.64;98895.53;125806;1096;65082;-89
2020/12/23 03:04:28;;;;;;;16.40;9.40;;;;;;;9.19;80.28;98893.09;125598;1096;65207;-91
2020/12/23 03:06:54;;;;;;;14.67;9.47;;;;;;;9.18;80.83;98892.24;125849;1095;65178;-93
2020/12/23 03:09:21;;;;;;;14.20;10.65;;;;;;;9.17;80.44;98892.35;125935;1097;65134;-92
2020/12/23 03:11:47;;;;;;;13.40;9.13;;;;;;;9.14;80.15;98888.07;125845;1095;65162;-93
2020/12/23 03:14:15;;;;;;;16.43;11.00;;;;;;;9.10;80.89;98883.93;125640;1095;65182;-92
2020/12/23 03:16:41;;;;;;;18.63;13.03;;;;;;;9.08;80.36;98885.83;125617;1096;65156;-94
2020/12/23 03:19:08;;;;;;;12.70;8.37;;;;;;;9.08;80.56;98885.83;125348;1097;65150;-89
2020/12/23 03:21:34;;;;;;;16.07;10.97;;;;;;;9.07;80.50;98891.27;125353;1097;65137;-92
2020/12/23 03:24:00;;;;;;;9.63;7.57;;;;;;;9.06;80.85;98890.42;125884;1095;65246;-90
2020/12/23 03:26:27;;;;;;;9.83;7.70;;;;;;;9.06;80.90;98882.42;125629;1095;65150;-92
2020/12/23 03:28:54;;;;;;;12.37;8.40;;;;;;;9.07;80.84;98877.95;126006;1095;65208;-94
2020/12/23 03:31:20;;;;;;;12.40;7.97;;;;;;;9.07;80.82;98868.14;125331;1097;65246;-92
2020/12/23 03:33:47;;;;;;;14.10;9.90;;;;;;;9.09;80.58;98868.03;125619;1095;65160;-92
2020/12/23 03:36:14;;;;;;;18.92;11.78;;;;;;;9.14;80.70;98868.57;125638;1096;65229;-90
2020/12/23 03:38:41;;;;;;;23.43;13.87;;;;;;;9.10;80.88;98867.95;125618;1095;65172;-92
2020/12/23 03:41:08;;;;;;;27.10;15.50;;;;;;;9.07;80.40;98870.81;125578;1095;65156;-90
2020/12/23 03:43:35;;;;;;;29.80;16.65;;;;;;;9.00;81.03;98876.67;125542;1095;65300;-90
2020/12/23 03:46:03;;;;;;;35.37;19.60;;;;;;;8.93;80.37;98890.41;125549;1095;65162;-95
2020/12/23 03:48:31;;;;;;;16.80;12.53;;;;;;;8.86;81.00;98886.45;125308;1095;65124;-88
2020/12/23 03:50:58;;;;;;;20.57;13.37;;;;;;;8.82;80.94;98878.77;125347;1095;65204;-93
2020/12/23 03:53:25;;;;;;;23.90;15.70;;;;;;;8.79;80.92;98882.50;125547;1095;65147;-93
2020/12/23 03:55:52;;;;;;;24.27;13.60;;;;;;;8.76;80.74;98877.37;125512;1095;65224;-93
2020/12/23 03:58:19;;;;;;;16.70;10.40;;;;;;;8.76;80.79;98884.50;125308;1097;65163;-92
2020/12/23 04:00:46;;;;;;;12.55;8.75;;;;;;;8.74;80.69;98894.41;125305;1095;65172;-92
2020/12/23 04:03:14;;;;;;;13.77;9.63;;;;;;;8.76;81.21;98893.34;125303;1096;65335;-92
2020/12/23 04:05:41;;;;;;;15.70;9.77;;;;;;;8.80;81.08;98894.85;125340;1096;65112;-95
2020/12/23 04:08:08;;;;;;;11.43;7.63;;;;;;;8.86;80.97;98894.44;125498;1095;65307;-93
2020/12/23 04:10:35;;;;;;;6.55;5.70;;;;;;;8.93;81.35;98900.20;125521;1095;65153;-90
2020/12/23 04:13:02;;;;;;;8.35;5.15;;;;;;;8.96;80.96;98896.47;125523;1095;65261;-95
2020/12/23 04:15:29;;;;;;;10.17;5.67;;;;;;;8.97;80.75;98899.05;125550;1095;65163;-93
2020/12/23 04:17:56;;;;;;;7.40;5.17;;;;;;;8.98;80.99;98889.25;125273;1096;65172;-89
2020/12/23 04:20:23;;;;;;;7.20;4.40;;;;;;;9.00;81.42;98895.31;125568;1095;65294;-92
2020/12/23 04:22:50;;;;;;;7.23;4.20;;;;;;;9.01;81.21;98891.69;125594;1095;65281;-92
2020/12/23 04:25:18;;;;;;;6.40;4.10;;;;;;;9.00;81.12;98890.83;125346;1096;65089;-91
2020/12/23 04:27:45;;;;;;;6.30;4.05;;;;;;;9.02;81.35;98893.39;125695;1095;65079;-93
2020/12/23 04:30:12;;;;;;;5.13;3.80;;;;;;;9.01;81.48;98894.34;125362;1096;65226;-91
2020/12/23 04:32:39;;;;;;;7.47;4.63;;;;;;;8.98;81.29;98898.09;125439;1095;65221;-91
2020/12/23 04:35:06;;;;;;;8.67;4.63;;;;;;;8.97;81.17;98896.39;125354;1096;65211;-92
2020/12/23 04:37:34;;;;;;;6.10;4.90;;;;;;;8.96;80.89;98894.66;125421;1096;65192;-92
2020/12/23 04:40:04;;;;;;;9.57;5.00;;;;;;;8.95;81.22;98898.28;125517;1096;65144;-92
2020/12/23 04:42:34;;;;;;;10.13;5.43;;;;;;;8.91;81.16;98902.13;125728;1096;65182;-94
2020/12/23 04:45:03;;;;;;;9.93;5.63;;;;;;;8.88;81.27;98910.30;125600;1095;65216;-91
2020/12/23 04:47:32;;;;;;;16.43;8.13;;;;;;;8.86;80.92;98902.43;125898;1097;65175;-91
2020/12/23 04:49:59;;;;;;;17.70;8.20;;;;;;;8.86;81.00;98899.77;126044;1095;65150;-92
2020/12/23 04:52:31;;;;;;;16.93;8.23;;;;;;;8.89;81.06;98902.20;126129;1095;65006;-90
2020/12/23 04:54:59;;;;;;;17.00;8.33;;;;;;;8.92;81.35;98898.50;125743;1097;65169;-94
2020/12/23 04:57:27;;;;;;;24.97;9.87;;;;;;;8.91;81.54;98894.98;126114;1095;65243;-91
2020/12/23 04:59:55;;;;;;;23.57;10.20;;;;;;;8.85;80.90;98890.08;125759;1095;65159;-91
2020/12/23 05:02:25;;;;;;;16.50;8.00;;;;;;;8.86;81.34;98889.12;125750;1096;65118;-91
2020/12/23 05:04:56;;;;;;;19.13;8.60;;;;;;;8.80;81.26;98886.87;125539;1096;65079;-92
2020/12/23 05:07:22;;;;;;;11.27;7.33;;;;;;;8.77;81.26;98884.39;125497;1095;65401;-92
2020/12/23 05:09:50;;;;;;;10.27;6.27;;;;;;;8.75;81.24;98880.14;125728;1093;65230;-91
2020/12/23 05:12:18;;;;;;;8.70;5.65;;;;;;;8.74;81.02;98891.75;125958;1095;65144;-91
2020/12/23 05:14:44;;;;;;;9.10;6.07;;;;;;;8.75;81.70;98891.64;126210;1095;65249;-92
2020/12/23 05:17:11;;;;;;;13.33;7.50;;;;;;;8.76;81.18;98892.49;125858;1095;65166;-90
2020/12/23 05:19:38;;;;;;;15.27;7.63;;;;;;;8.78;81.14;98894.11;125765;1096;65140;-92
2020/12/23 05:22:07;;;;;;;17.57;7.73;;;;;;;8.82;81.52;98890.27;125902;1097;65237;-92
2020/12/23 05:24:38;;;;;;;18.90;7.77;;;;;;;8.82;81.28;98898.25;126036;1095;65123;-92
2020/12/23 05:27:06;;;;;;;18.23;7.83;;;;;;;8.82;81.81;98889.42;126369;1095;65086;-91
2020/12/23 05:29:33;;;;;;;20.17;8.80;;;;;;;8.86;81.61;98893.59;126035;1097;65248;-91
2020/12/23 05:32:04;;;;;;;15.23;8.40;;;;;;;8.81;81.07;98893.89;126190;1095;65089;-90
2020/12/23 05:34:35;;;;;;;15.40;8.33;;;;;;;8.76;81.09;98895.16;126102;1096;65316;-92
2020/12/23 05:37:03;;;;;;;16.87;10.63;;;;;;;8.74;81.36;98894.41;126249;1096;65162;-90
2020/12/23 05:39:31;;;;;;;19.63;11.43;;;;;;;8.74;81.29;98889.94;126371;1096;65541;-92
2020/12/23 05:41:59;;;;;;;19.47;11.33;;;;;;;8.76;81.13;98897.81;125881;1097;65256;-93
2020/12/23 05:44:27;;;;;;;25.80;15.20;;;;;;;8.77;81.04;98888.87;126184;1095;65082;-92
2020/12/23 05:46:55;;;;;;;28.95;18.15;;;;;;;8.77;81.13;98887.05;125841;1097;65306;-92
2020/12/23 05:49:25;;;;;;;40.77;26.03;;;;;;;8.76;81.24;98876.52;125880;1095;65230;-92
2020/12/23 05:51:52;;;;;;;47.37;28.60;;;;;;;8.63;81.26;98884.47;125939;1090;65137;-92
2020/12/23 05:54:20;;;;;;;59.63;32.97;;;;;;;8.57;81.56;98887.55;125859;1095;65246;-89
2020/12/23 05:56:51;;;;;;;55.57;30.70;;;;;;;8.45;81.00;98893.67;125747;1095;65252;-91
2020/12/23 05:59:18;;;;;;;68.17;35.73;;;;;;;8.38;81.34;98894.08;125610;1097;65256;-91
2020/12/23 06:01:45;;;;;;;57.93;33.97;;;;;;;8.30;81.32;98899.02;125732;1097;65300;-92
2020/12/23 06:04:15;;;;;;;59.67;32.87;;;;;;;8.24;81.16;98896.77;125795;1095;65118;-92
2020/12/23 06:06:43;;;;;;;59.23;34.57;;;;;;;8.21;81.79;98901.45;125772;1096;65080;-90
2020/12/23 06:09:11;;;;;;;52.80;31.40;;;;;;;8.22;81.34;98900.48;125455;1097;65127;-91
2020/12/23 06:11:49;;;;;;;54.33;30.27;;;;;;;8.21;81.70;98902.30;125354;1096;65267;-92
2020/12/23 06:14:23;;;;;;;53.00;28.83;;;;;;;8.30;82.22;98903.49;125941;1096;65185;-91
2020/12/23 06:17:05;;;;;;;43.02;24.80;;;;;;;8.36;81.76;98898.66;125688;1090;65328;-91
2020/12/23 06:19:36;;;;;;;49.93;29.50;;;;;;;8.37;81.42;98887.05;125754;1096;65179;-94
2020/12/23 06:22:10;;;;;;;48.80;28.73;;;;;;;8.37;81.45;98899.51;125533;1096;65275;-90
2020/12/23 06:24:37;;;;;;;42.67;26.37;;;;;;;8.28;81.75;98898.28;125844;1095;65176;-92
2020/12/23 06:27:08;;;;;;;43.30;24.70;;;;;;;8.26;81.60;98892.19;125605;1090;65111;-90
2020/12/23 06:29:37;;;;;;;44.90;28.13;;;;;;;8.22;81.32;98901.34;125449;1097;65127;-91
2020/12/23 06:32:05;;;;;;;42.10;27.57;;;;;;;8.24;81.74;98902.08;126022;1095;65160;-90
2020/12/23 06:34:36;;;;;;;46.03;28.83;;;;;;;8.17;81.60;98913.23;125652;1096;65121;-92
2020/12/23 06:37:28;;;;;;;59.77;29.57;;;;;;;8.09;81.36;98914.58;125594;1096;65239;-91
2020/12/23 06:39:55;;;;;;;62.43;28.17;;;;;;;8.03;81.59;98919.44;125583;1095;65150;-92
2020/12/23 06:42:22;;;;;;;64.73;28.77;;;;;;;8.04;81.81;98919.33;125846;1096;65269;-90
2020/12/23 06:44:48;;;;;;;70.95;31.55;;;;;;;8.12;82.16;98913.52;125481;1097;65246;-92
2020/12/23 06:47:20;;;;;;;66.03;26.07;;;;;;;8.22;82.07;98913.79;126216;1095;65127;-91
2020/12/23 06:49:46;;;;;;;63.05;27.05;;;;;;;8.29;81.87;98910.63;125654;1095;65179;-91
2020/12/23 06:52:21;;;;;;;70.47;28.37;;;;;;;8.32;82.01;98922.86;125806;1095;65153;-91
2020/12/23 06:54:52;;;;;;;65.67;29.37;;;;;;;8.35;81.67;98915.58;125733;1095;66716;-94
2020/12/23 06:57:34;;;;;;;75.50;31.03;;;;;;;8.39;82.17;98916.22;125861;1095;65108;-94
2020/12/23 07:00:07;;;;;;;95.30;37.57;;;;;;;8.45;81.94;98912.30;125700;1095;65134;-89
2020/12/23 07:02:45;;;;;;;92.37;38.00;;;;;;;8.50;82.15;98918.19;125418;1096;65130;-91
2020/12/23 07:05:13;;;;;;;77.10;35.13;;;;;;;8.43;81.25;98917.73;125568;1095;65117;-93
2020/12/23 07:07:42;;;;;;;81.87;35.57;;;;;;;8.33;81.65;98917.47;125593;1095;65158;-91
2020/12/23 07:10:17;;;;;;;72.17;32.83;;;;;;;8.28;81.79;98916.91;125323;1095;65202;-93
2020/12/23 07:12:47;;;;;;;;;;;;;;;8.31;81.89;98914.03;125685;1095;65352;-89
2020/12/23 07:15:19;;;;;;;72.70;30.33;;;;;;;8.36;81.78;98913.77;125563;1095;65136;-91
2020/12/23 07:17:46;;;;;;;67.57;29.63;;;;;;;8.34;81.70;98921.83;125651;1095;65272;-93
2020/12/23 07:20:13;;;;;;;68.67;29.83;;;;;;;8.38;82.23;98922.50;125551;1095;65133;-93
2020/12/23 07:22:46;;;;;;;59.07;28.27;;;;;;;8.49;81.82;98916.48;125296;1095;65156;-96
2020/12/23 07:25:17;;;;;;;58.30;30.27;;;;;;;8.46;81.91;98920.21;125340;1097;65160;-92
2020/12/23 07:27:45;;;;;;;62.40;31.17;;;;;;;8.47;82.24;98918.41;125434;1097;65290;-95
2020/12/23 07:30:12;;;;;;;70.77;34.03;;;;;;;8.59;82.32;98912.27;125326;1097;65147;-91
2020/12/23 07:32:39;;;;;;;54.60;32.97;;;;;;;8.66;82.28;98914.42;125251;1095;65169;-92
2020/12/23 07:35:06;;;;;;;64.37;33.40;;;;;;;8.69;82.07;98915.16;125549;1095;65137;-91
2020/12/23 07:37:38;;;;;;;67.83;31.73;;;;;;;8.70;81.50;98916.86;125320;1097;65191;-92
2020/12/23 07:40:13;;;;;;;61.60;30.87;;;;;;;8.66;81.72;98919.74;125537;1095;65329;-89
2020/12/23 07:42:48;;;;;;;62.60;29.87;;;;;;;8.66;81.63;98921.55;125598;1095;65223;-91
2020/12/23 07:45:16;;;;;;;52.83;24.60;;;;;;;8.70;81.52;98917.71;125354;1095;65143;-94
2020/12/23 07:47:54;;;;;;;43.90;21.20;;;;;;;8.75;82.05;98926.25;125396;1095;65197;-92
2020/12/23 07:50:21;;;;;;;45.00;25.77;;;;;;;8.70;81.38;98928.36;125603;1095;65143;-94
2020/12/23 07:52:48;;;;;;;58.10;33.50;;;;;;;8.66;81.94;98929.54;125569;1095;65309;-91
2020/12/23 07:55:19;;;;;;;69.10;38.00;;;;;;;8.71;81.73;98937.20;125314;1097;65133;-93
2020/12/23 07:57:48;;;;;;;72.97;37.10;;;;;;;8.78;81.71;98931.39;125568;1095;65271;-90
2020/12/23 08:00:16;;;;;;;62.53;37.40;;;;;;;8.85;81.95;98929.17;125545;1095;65186;-93
2020/12/23 08:02:43;;;;;;;56.83;27.60;;;;;;;8.90;81.94;98935.02;125290;1097;65121;-92
2020/12/23 08:05:12;;;;;;;51.87;27.83;;;;;;;8.91;81.85;98940.27;125290;1097;65219;-90
2020/12/23 08:07:43;;;;;;;46.40;25.07;;;;;;;8.85;81.79;98946.00;125606;1096;65134;-95
2020/12/23 08:10:14;;;;;;;43.67;23.97;;;;;;;8.78;81.38;98949.14;125296;1095;65159;-91
2020/12/23 08:12:56;;;;;;;48.70;27.07;;;;;;;8.77;81.62;98947.44;125721;1095;65166;-87
2020/12/23 08:15:24;;;;;;;42.00;23.10;;;;;;;8.77;81.23;98960.76;125298;1097;65158;-89
2020/12/23 08:18:04;;;;;;;42.53;23.63;;;;;;;8.75;81.74;98960.02;125535;1095;65130;-92
2020/12/23 08:20:32;;;;;;;46.35;24.55;;;;;;;8.81;82.05;98952.47;125313;1095;65194;-91
2020/12/23 08:23:00;;;;;;;46.40;25.57;;;;;;;8.92;82.20;98944.63;125531;1095;65162;-90
2020/12/23 08:25:28;;;;;;;46.07;26.47;;;;;;;9.03;81.85;98938.55;125581;1095;65166;-91
2020/12/23 08:27:57;;;;;;;48.53;29.73;;;;;;;9.10;81.84;98939.03;125525;1095;65269;-90
2020/12/23 08:30:29;;;;;;;48.83;27.83;;;;;;;9.16;81.82;98943.91;125545;1095;65335;-96
2020/12/23 08:33:07;;;;;;;39.47;24.10;;;;;;;9.20;82.19;98934.76;125318;1097;65230;-92
2020/12/23 08:35:42;;;;;;;44.85;24.15;;;;;;;9.27;82.00;98943.19;125318;1097;65169;-93
2020/12/23 08:38:16;;;;;;;42.30;25.52;;;;;;;9.29;81.58;98943.92;125559;1095;65172;-88
2020/12/23 08:40:54;;;;;;;47.38;26.95;;;;;;;9.27;81.51;98941.37;125370;1096;65223;-94
2020/12/23 08:43:28;;;;;;;43.00;24.63;;;;;;;9.31;81.75;98942.88;125451;1095;65188;-93
2020/12/23 08:46:00;;;;;;;40.37;24.07;;;;;;;9.45;82.16;98933.92;125931;1097;65637;-88
2020/12/23 08:48:47;;;;;;;44.63;23.83;;;;;;;9.59;82.24;98930.29;126608;1096;65240;-89
2020/12/23 08:51:25;;;;;;;50.80;27.90;;;;;;;9.72;81.56;98931.13;125950;1095;65153;-94
2020/12/23 08:53:52;;;;;;;48.57;27.20;;;;;;;9.80;81.58;98934.13;125590;1095;65146;-93
2020/12/23 08:56:31;;;;;;;43.60;24.93;;;;;;;9.86;81.38;98944.37;125182;1095;65137;-93
2020/12/23 08:59:03;;;;;;;43.83;23.60;;;;;;;9.89;81.67;98936.13;125316;1097;65133;-91
2020/12/23 09:01:31;;;;;;;42.00;22.80;;;;;;;9.94;81.69;98942.00;125246;1097;65287;-90
2020/12/23 09:04:07;;;;;;;35.80;22.00;;;;;;;10.01;81.31;98947.75;125571;1095;65175;-90
2020/12/23 09:06:36;;;;;;;42.23;20.73;;;;;;;10.07;81.59;98938.45;125317;1097;65658;-95
2020/12/23 09:09:20;;;;;;;33.90;20.27;;;;;;;10.13;81.15;98946.02;125276;1097;65168;-95
2020/12/23 09:11:49;;;;;;;38.33;21.73;;;;;;;10.23;81.70;98944.41;125540;1095;65140;-90
2020/12/23 09:14:38;;;;;;;39.47;21.97;;;;;;;10.31;81.76;98949.19;125372;1097;65175;-91
2020/12/23 09:17:11;;;;;;;33.33;21.70;;;;;;;10.32;81.54;98956.25;125238;1097;65698;-95
2020/12/23 09:19:45;;;;;;;38.57;22.63;;;;;;;10.29;81.16;98960.83;125310;1097;65162;-92
2020/12/23 09:22:22;;;;;;;37.30;22.27;;;;;;;10.19;80.93;98965.11;125577;1095;65133;-92
2020/12/23 09:24:50;;;;;;;38.40;22.25;;;;;;;10.17;81.09;98955.49;125497;1095;65240;-92
2020/12/23 09:27:25;;;;;;;38.13;22.77;;;;;;;10.17;81.76;98950.16;125293;1095;65207;-88
2020/12/23 09:29:52;;;;;;;36.87;23.13;;;;;;;10.20;81.13;98941.95;125525;1095;65281;-89
2020/12/23 09:32:19;;;;;;;39.33;22.60;;;;;;;10.22;81.18;98935.52;125448;1095;65489;-92
2020/12/23 09:34:45;;;;;;;47.53;29.23;;;;;;;10.25;81.45;98934.50;125575;1095;65279;-92
2020/12/23 09:37:12;;;;;;;64.60;35.97;;;;;;;10.25;81.09;98935.34;125429;1096;65143;-94
2020/12/23 09:39:39;;;;;;;71.37;38.27;;;;;;;10.27;81.31;98937.90;125430;1095;67720;-90
2020/12/23 09:42:07;;;;;;;75.07;42.27;;;;;;;10.20;81.65;98926.78;125454;1096;65153;-90
2020/12/23 09:44:36;;;;;;;79.40;42.53;;;;;;;10.20;81.90;98910.77;125412;1096;65232;-91
2020/12/23 09:47:02;;;;;;;79.40;42.35;;;;;;;10.24;81.94;98904.29;125522;1095;65345;-90
2020/12/23 09:49:29;;;;;;;64.95;39.35;;;;;;;10.25;81.48;98908.66;125563;1095;65169;-94
2020/12/23 09:51:55;;;;;;;75.20;39.80;;;;;;;10.26;81.08;98912.17;125545;1095;65179;-94
2020/12/23 09:54:22;;;;;;;77.50;42.03;;;;;;;10.24;81.14;98922.09;125302;1097;65130;-92
2020/12/23 09:56:51;;;;;;;73.87;43.57;;;;;;;10.25;81.89;98930.01;125705;1095;65332;-92
2020/12/23 09:59:22;;;;;;;80.13;43.60;;;;;;;10.29;81.37;98922.61;125244;1097;65229;-89
2020/12/23 10:01:48;;;;;;;84.83;44.40;;;;;;;10.31;81.48;98928.72;125452;1095;65224;-89
2020/12/23 10:04:15;;;;;;;63.70;40.17;;;;;;;10.23;81.00;98915.91;125177;1095;65143;-92
2020/12/23 10:06:41;;;;;;;72.80;40.67;;;;;;;10.24;80.96;98911.41;125503;1095;65133;-94
2020/12/23 10:09:08;;;;;;;57.67;36.77;;;;;;;10.29;81.08;98909.27;125265;1095;65265;-87
2020/12/23 10:11:35;;;;;;;50.93;32.23;;;;;;;10.31;81.14;98909.15;125439;1095;65217;-93
2020/12/23 10:14:02;;;;;;;71.20;39.60;;;;;;;10.36;81.20;98901.66;125473;1095;65610;-91
2020/12/23 10:16:32;;;;;;;42.33;27.73;;;;;;;10.39;81.23;98896.96;125965;1095;65184;-89
2020/12/23 10:18:59;;;;;;;50.30;27.77;;;;;;;10.44;81.26;98893.96;125983;1095;65079;-92
2020/12/23 10:21:26;;;;;;;36.73;23.73;;;;;;;10.55;81.28;98883.31;125461;1096;65229;-94
2020/12/23 10:23:53;;;;;;;43.00;26.70;;;;;;;10.64;81.87;98877.30;125381;1095;65258;-89
2020/12/23 10:26:19;;;;;;;46.03;27.53;;;;;;;10.74;81.80;98869.43;125302;1096;65621;-90
2020/12/23 10:28:46;;;;;;;45.60;29.50;;;;;;;10.77;81.71;98870.06;125466;1095;65144;-90
2020/12/23 10:31:13;;;;;;;34.80;23.85;;;;;;;10.82;81.23;98867.05;125525;1095;65156;-93
2020/12/23 10:33:40;;;;;;;35.77;22.23;;;;;;;10.75;81.10;98863.11;125517;1095;65182;-93
2020/12/23 10:36:09;;;;;;;27.87;19.17;;;;;;;10.78;81.35;98865.57;125500;1095;65243;-90
2020/12/23 10:38:36;;;;;;;30.90;20.50;;;;;;;10.87;81.58;98862.19;125554;1096;65134;-90
2020/12/23 10:41:02;;;;;;;41.30;24.33;;;;;;;10.92;80.98;98870.70;125319;1096;65253;-90
2020/12/23 10:43:29;;;;;;;32.40;23.23;;;;;;;10.97;80.87;98873.88;125578;1095;65258;-90
2020/12/23 10:45:55;;;;;;;34.60;21.83;;;;;;;11.02;81.29;98860.18;125548;1096;65124;-93
2020/12/23 10:48:22;;;;;;;34.33;21.03;;;;;;;11.10;81.13;98865.78;125541;1095;65201;-88
2020/12/23 10:50:48;;;;;;;30.17;19.47;;;;;;;11.15;81.24;98855.59;125573;1095;65146;-90
2020/12/23 10:53:15;;;;;;;32.00;19.33;;;;;;;11.18;81.41;98851.81;125159;1096;65156;-89
2020/12/23 10:55:42;;;;;;;32.43;20.03;;;;;;;11.17;80.72;98842.09;125498;1095;65151;-91
2020/12/23 10:58:08;;;;;;;37.63;21.47;;;;;;;11.19;81.04;98848.16;125214;1096;65207;-90
2020/12/23 11:00:35;;;;;;;37.05;22.25;;;;;;;11.21;81.48;98847.09;125152;1095;65313;-94
2020/12/23 11:03:02;;;;;;;35.50;21.63;;;;;;;11.28;81.30;98832.27;125483;1095;65159;-89
2020/12/23 11:05:29;;;;;;;34.60;21.47;;;;;;;11.34;80.92;98833.62;125210;1095;65158;-88
2020/12/23 11:07:56;;;;;;;33.27;21.23;;;;;;;11.38;80.51;98829.71;125196;1097;65118;-88
2020/12/23 11:10:23;;;;;;;33.30;21.13;;;;;;;11.44;80.66;98829.23;125226;1096;65166;-88
2020/12/23 11:12:50;;;;;;;39.67;22.70;;;;;;;11.51;81.01;98833.11;125202;1096;65284;-89
2020/12/23 11:15:18;;;;;;;32.37;22.73;;;;;;;11.63;81.08;98826.79;125456;1095;65130;-89
2020/12/23 11:17:45;;;;;;;35.30;23.17;;;;;;;11.69;80.90;98824.59;125251;1095;65541;-87
2020/12/23 11:20:12;;;;;;;33.75;22.10;;;;;;;11.70;81.03;98821.80;125174;1095;65191;-91
2020/12/23 11:22:39;;;;;;;35.33;21.63;;;;;;;11.74;81.01;98827.77;125551;1095;65177;-91
2020/12/23 11:25:06;;;;;;;35.55;22.65;;;;;;;11.76;80.94;98828.48;125293;1095;65297;-90
2020/12/23 11:27:33;;;;;;;35.05;22.75;;;;;;;11.72;80.80;98829.72;125286;1096;65152;-87
2020/12/23 11:30:00;;;;;;;32.93;21.37;;;;;;;11.74;80.68;98819.73;125521;1095;65125;-93